sensor_id;sensor_type;location;lat;lon;timestamp;temperature;humidity
64874;HTU21D;51367;45.204;38.576;2023-05-29T13:31:06;21.95;83.05
64874;HTU21D;51367;45.204;38.576;2023-05-29T13:33:32;22.03;82.81
64874;HTU21D;51367;45.204;38.576;2023-05-29T13:35:58;22.14;82.83
64874;HTU21D;51367;45.204;38.576;2023-05-29T13:38:24;22.31;82.87
64874;HTU21D;51367;45.204;38.576;2023-05-29T13:40:50;22.43;82.48
64874;HTU21D;51367;45.204;38.576;2023-05-29T13:43:16;22.60;82.34
64874;HTU21D;51367;45.204;38.576;2023-05-29T13:45:42;22.71;82.18
64874;HTU21D;51367;45.204;38.576;2023-05-29T13:48:08;22.77;81.67
64874;HTU21D;51367;45.204;38.576;2023-05-29T13:50:33;22.71;81.52
64874;HTU21D;51367;45.204;38.576;2023-05-29T13:53:00;22.67;81.71
64874;HTU21D;51367;45.204;38.576;2023-05-29T13:55:26;22.66;81.85
64874;HTU21D;51367;45.204;38.576;2023-05-29T13:57:52;22.66;81.86
64874;HTU21D;51367;45.204;38.576;2023-05-29T14:00:18;22.66;81.87
64874;HTU21D;51367;45.204;38.576;2023-05-29T14:02:44;22.64;81.84
64874;HTU21D;51367;45.204;38.576;2023-05-29T14:05:10;22.64;81.89
64874;HTU21D;51367;45.204;38.576;2023-05-29T14:07:36;22.68;81.82
64874;HTU21D;51367;45.204;38.576;2023-05-29T14:10:03;22.72;81.75
64874;HTU21D;51367;45.204;38.576;2023-05-29T14:12:29;22.75;81.67
64874;HTU21D;51367;45.204;38.576;2023-05-29T14:14:55;22.82;81.69
64874;HTU21D;51367;45.204;38.576;2023-05-29T14:17:21;22.90;81.33
64874;HTU21D;51367;45.204;38.576;2023-05-29T14:19:47;22.90;81.17
64874;HTU21D;51367;45.204;38.576;2023-05-29T14:22:13;22.93;81.12
64874;HTU21D;51367;45.204;38.576;2023-05-29T14:24:39;22.97;81.17
64874;HTU21D;51367;45.204;38.576;2023-05-29T14:27:05;23.07;81.06
64874;HTU21D;51367;45.204;38.576;2023-05-29T14:29:31;23.13;80.77
64874;HTU21D;51367;45.204;38.576;2023-05-29T14:31:57;23.12;80.54
64874;HTU21D;51367;45.204;38.576;2023-05-29T14:34:23;23.10;80.25
64874;HTU21D;51367;45.204;38.576;2023-05-29T14:36:49;23.10;80.29
64874;HTU21D;51367;45.204;38.576;2023-05-29T14:39:15;23.09;80.15
64874;HTU21D;51367;45.204;38.576;2023-05-29T14:41:41;23.09;80.14
64874;HTU21D;51367;45.204;38.576;2023-05-29T14:44:07;23.06;80.17
64874;HTU21D;51367;45.204;38.576;2023-05-29T14:46:33;23.03;79.98
64874;HTU21D;51367;45.204;38.576;2023-05-29T14:49:00;23.02;80.07
64874;HTU21D;51367;45.204;38.576;2023-05-29T14:51:27;23.05;80.21
64874;HTU21D;51367;45.204;38.576;2023-05-29T14:53:53;23.07;80.05
64874;HTU21D;51367;45.204;38.576;2023-05-29T14:56:19;23.07;79.94
64874;HTU21D;51367;45.204;38.576;2023-05-29T14:58:46;23.03;79.99
64874;HTU21D;51367;45.204;38.576;2023-05-29T15:01:16;23.02;79.91
64874;HTU21D;51367;45.204;38.576;2023-05-29T15:03:42;23.01;79.84
64874;HTU21D;51367;45.204;38.576;2023-05-29T15:06:10;23.01;79.94
64874;HTU21D;51367;45.204;38.576;2023-05-29T15:08:38;23.02;79.98
64874;HTU21D;51367;45.204;38.576;2023-05-29T15:11:05;23.06;80.00
64874;HTU21D;51367;45.204;38.576;2023-05-29T15:13:31;23.07;79.79
64874;HTU21D;51367;45.204;38.576;2023-05-29T15:15:58;23.05;79.77
64874;HTU21D;51367;45.204;38.576;2023-05-29T15:18:26;23.02;79.82
64874;HTU21D;51367;45.204;38.576;2023-05-29T15:20:52;22.99;79.85
64874;HTU21D;51367;45.204;38.576;2023-05-29T15:23:18;22.96;79.86
64874;HTU21D;51367;45.204;38.576;2023-05-29T15:25:48;22.93;79.92
64874;HTU21D;51367;45.204;38.576;2023-05-29T15:28:14;22.90;79.98
64874;HTU21D;51367;45.204;38.576;2023-05-29T15:30:40;22.88;80.07
64874;HTU21D;51367;45.204;38.576;2023-05-29T15:33:06;22.88;80.19
64874;HTU21D;51367;45.204;38.576;2023-05-29T15:35:36;22.88;80.20
64874;HTU21D;51367;45.204;38.576;2023-05-29T15:38:02;22.86;80.19
64874;HTU21D;51367;45.204;38.576;2023-05-29T15:40:28;22.84;80.24
64874;HTU21D;51367;45.204;38.576;2023-05-29T15:42:54;22.82;80.26
64874;HTU21D;51367;45.204;38.576;2023-05-29T15:45:20;22.81;80.27
64874;HTU21D;51367;45.204;38.576;2023-05-29T15:47:48;22.80;80.29
64874;HTU21D;51367;45.204;38.576;2023-05-29T15:50:14;22.81;80.30
64874;HTU21D;51367;45.204;38.576;2023-05-29T15:52:40;22.79;80.30
64874;HTU21D;51367;45.204;38.576;2023-05-29T15:55:06;22.76;80.30
64874;HTU21D;51367;45.204;38.576;2023-05-29T15:57:33;22.75;80.32
64874;HTU21D;51367;45.204;38.576;2023-05-29T15:59:59;22.71;80.38
64874;HTU21D;51367;45.204;38.576;2023-05-29T16:02:25;22.68;80.43
64874;HTU21D;51367;45.204;38.576;2023-05-29T16:04:51;22.67;80.46
64874;HTU21D;51367;45.204;38.576;2023-05-29T16:07:17;22.64;80.52
64874;HTU21D;51367;45.204;38.576;2023-05-29T16:09:43;22.64;80.56
64874;HTU21D;51367;45.204;38.576;2023-05-29T16:12:09;22.61;80.59
64874;HTU21D;51367;45.204;38.576;2023-05-29T16:14:37;22.57;80.64
64874;HTU21D;51367;45.204;38.576;2023-05-29T16:17:03;22.54;80.69
64874;HTU21D;51367;45.204;38.576;2023-05-29T16:19:29;22.53;80.72
64874;HTU21D;51367;45.204;38.576;2023-05-29T16:21:55;22.49;80.75
64874;HTU21D;51367;45.204;38.576;2023-05-29T16:24:21;22.44;80.81
64874;HTU21D;51367;45.204;38.576;2023-05-29T16:26:47;22.42;80.85
64874;HTU21D;51367;45.204;38.576;2023-05-29T16:29:13;22.37;80.89
64874;HTU21D;51367;45.204;38.576;2023-05-29T16:31:40;22.34;80.92
64874;HTU21D;51367;45.204;38.576;2023-05-29T16:34:06;22.31;80.98
64874;HTU21D;51367;45.204;38.576;2023-05-29T16:36:32;22.26;81.04
64874;HTU21D;51367;45.204;38.576;2023-05-29T16:38:58;22.19;81.09
64874;HTU21D;51367;45.204;38.576;2023-05-29T16:41:24;22.14;81.16
64874;HTU21D;51367;45.204;38.576;2023-05-29T16:43:50;22.10;81.20
64874;HTU21D;51367;45.204;38.576;2023-05-29T16:46:16;22.05;81.26
64874;HTU21D;51367;45.204;38.576;2023-05-29T16:48:42;21.99;81.38
64874;HTU21D;51367;45.204;38.576;2023-05-29T16:51:08;21.92;81.47
64874;HTU21D;51367;45.204;38.576;2023-05-29T16:53:34;21.87;81.55
64874;HTU21D;51367;45.204;38.576;2023-05-29T16:56:01;21.80;81.65
64874;HTU21D;51367;45.204;38.576;2023-05-29T16:58:28;21.74;81.72
64874;HTU21D;51367;45.204;38.576;2023-05-29T17:00:54;21.68;81.79
64874;HTU21D;51367;45.204;38.576;2023-05-29T17:03:20;21.63;81.86
64874;HTU21D;51367;45.204;38.576;2023-05-29T17:05:45;21.59;81.94
64874;HTU21D;51367;45.204;38.576;2023-05-29T17:08:13;21.52;82.01
64874;HTU21D;51367;45.204;38.576;2023-05-29T17:10:39;21.47;82.08
64874;HTU21D;51367;45.204;38.576;2023-05-29T17:13:05;21.42;82.13
64874;HTU21D;51367;45.204;38.576;2023-05-29T17:15:32;21.37;82.20
64874;HTU21D;51367;45.204;38.576;2023-05-29T17:17:58;21.33;82.26
64874;HTU21D;51367;45.204;38.576;2023-05-29T17:20:25;21.24;82.37
64874;HTU21D;51367;45.204;38.576;2023-05-29T17:22:51;21.18;82.49
64874;HTU21D;51367;45.204;38.576;2023-05-29T17:25:17;21.13;82.57
64874;HTU21D;51367;45.204;38.576;2023-05-29T17:27:45;21.05;82.70
64874;HTU21D;51367;45.204;38.576;2023-05-29T17:30:11;20.98;82.83
64874;HTU21D;51367;45.204;38.576;2023-05-29T17:32:37;20.93;82.90
64874;HTU21D;51367;45.204;38.576;2023-05-29T17:35:04;20.89;82.95
64874;HTU21D;51367;45.204;38.576;2023-05-29T17:37:30;20.85;82.98
64874;HTU21D;51367;45.204;38.576;2023-05-29T17:39:56;20.83;83.01
64874;HTU21D;51367;45.204;38.576;2023-05-29T17:42:22;20.80;83.03
64874;HTU21D;51367;45.204;38.576;2023-05-29T17:44:48;20.77;83.07
64874;HTU21D;51367;45.204;38.576;2023-05-29T17:47:15;20.75;83.08
64874;HTU21D;51367;45.204;38.576;2023-05-29T17:49:41;20.74;83.10
64874;HTU21D;51367;45.204;38.576;2023-05-29T17:52:07;20.73;83.09
64874;HTU21D;51367;45.204;38.576;2023-05-29T17:54:33;20.72;83.11
64874;HTU21D;51367;45.204;38.576;2023-05-29T17:57:00;20.70;83.12
64874;HTU21D;51367;45.204;38.576;2023-05-29T17:59:29;20.68;83.13
64874;HTU21D;51367;45.204;38.576;2023-05-29T18:01:55;20.66;83.12
64874;HTU21D;51367;45.204;38.576;2023-05-29T18:04:21;20.62;83.13
64874;HTU21D;51367;45.204;38.576;2023-05-29T18:06:48;20.58;83.15
64874;HTU21D;51367;45.204;38.576;2023-05-29T18:09:13;20.50;83.26
64874;HTU21D;51367;45.204;38.576;2023-05-29T18:11:39;20.46;83.38
64874;HTU21D;51367;45.204;38.576;2023-05-29T18:14:10;20.40;83.49
64874;HTU21D;51367;45.204;38.576;2023-05-29T18:16:37;20.33;83.58
64874;HTU21D;51367;45.204;38.576;2023-05-29T18:19:04;20.29;83.65
64874;HTU21D;51367;45.204;38.576;2023-05-29T18:21:34;20.25;83.71
64874;HTU21D;51367;45.204;38.576;2023-05-29T18:24:01;20.21;83.71
64874;HTU21D;51367;45.204;38.576;2023-05-29T18:26:27;20.18;83.71
64874;HTU21D;51367;45.204;38.576;2023-05-29T18:28:54;20.13;83.74
64874;HTU21D;51367;45.204;38.576;2023-05-29T18:31:20;20.07;83.75
64874;HTU21D;51367;45.204;38.576;2023-05-29T18:33:46;20.03;83.77
64874;HTU21D;51367;45.204;38.576;2023-05-29T18:36:13;19.97;83.76
64874;HTU21D;51367;45.204;38.576;2023-05-29T18:38:39;19.89;83.87
64874;HTU21D;51367;45.204;38.576;2023-05-29T18:41:06;19.81;83.97
64874;HTU21D;51367;45.204;38.576;2023-05-29T18:43:32;19.73;84.08
64874;HTU21D;51367;45.204;38.576;2023-05-29T18:45:58;19.68;84.17
64874;HTU21D;51367;45.204;38.576;2023-05-29T18:48:24;19.65;84.19
64874;HTU21D;51367;45.204;38.576;2023-05-29T18:50:53;19.61;84.23
64874;HTU21D;51367;45.204;38.576;2023-05-29T18:53:19;19.59;84.23
64874;HTU21D;51367;45.204;38.576;2023-05-29T18:55:45;19.57;84.24
64874;HTU21D;51367;45.204;38.576;2023-05-29T18:58:11;19.55;84.22
64874;HTU21D;51367;45.204;38.576;2023-05-29T19:00:38;19.51;84.21
64874;HTU21D;51367;45.204;38.576;2023-05-29T19:03:05;19.46;84.23
64874;HTU21D;51367;45.204;38.576;2023-05-29T19:05:31;19.42;84.22
64874;HTU21D;51367;45.204;38.576;2023-05-29T19:07:57;19.37;84.27
64874;HTU21D;51367;45.204;38.576;2023-05-29T19:10:27;19.31;84.39
64874;HTU21D;51367;45.204;38.576;2023-05-29T19:12:52;19.28;84.44
64874;HTU21D;51367;45.204;38.576;2023-05-29T19:15:18;19.24;84.48
64874;HTU21D;51367;45.204;38.576;2023-05-29T19:18:03;19.20;84.52
64874;HTU21D;51367;45.204;38.576;2023-05-29T19:23:13;19.12;84.57
64874;HTU21D;51367;45.204;38.576;2023-05-29T19:25:39;19.09;84.58
64874;HTU21D;51367;45.204;38.576;2023-05-29T19:28:05;19.07;84.63
64874;HTU21D;51367;45.204;38.576;2023-05-29T19:30:34;19.01;84.71
64874;HTU21D;51367;45.204;38.576;2023-05-29T19:33:00;18.97;84.78
64874;HTU21D;51367;45.204;38.576;2023-05-29T19:35:26;18.95;84.83
64874;HTU21D;51367;45.204;38.576;2023-05-29T19:37:52;18.95;84.84
64874;HTU21D;51367;45.204;38.576;2023-05-29T19:40:17;18.93;84.84
64874;HTU21D;51367;45.204;38.576;2023-05-29T19:42:43;18.92;84.85
64874;HTU21D;51367;45.204;38.576;2023-05-29T19:45:10;18.89;84.88
64874;HTU21D;51367;45.204;38.576;2023-05-29T19:47:36;18.87;84.90
64874;HTU21D;51367;45.204;38.576;2023-05-29T19:50:20;18.88;84.91
64874;HTU21D;51367;45.204;38.576;2023-05-29T19:52:47;18.86;84.90
64874;HTU21D;51367;45.204;38.576;2023-05-29T19:55:13;18.85;84.88
64874;HTU21D;51367;45.204;38.576;2023-05-29T19:57:39;18.84;84.89
64874;HTU21D;51367;45.204;38.576;2023-05-29T20:00:05;18.83;84.90
64874;HTU21D;51367;45.204;38.576;2023-05-29T20:02:37;18.82;84.88
64874;HTU21D;51367;45.204;38.576;2023-05-29T20:05:03;18.82;84.86
64874;HTU21D;51367;45.204;38.576;2023-05-29T20:07:29;18.81;84.86
64874;HTU21D;51367;45.204;38.576;2023-05-29T20:09:56;18.79;84.87
64874;HTU21D;51367;45.204;38.576;2023-05-29T20:12:22;18.76;84.84
64874;HTU21D;51367;45.204;38.576;2023-05-29T20:14:49;18.73;84.87
64874;HTU21D;51367;45.204;38.576;2023-05-29T20:17:18;18.72;84.94
64874;HTU21D;51367;45.204;38.576;2023-05-29T20:19:50;18.68;84.97
64874;HTU21D;51367;45.204;38.576;2023-05-29T20:22:16;18.68;84.97
64874;HTU21D;51367;45.204;38.576;2023-05-29T20:24:42;18.65;84.97
64874;HTU21D;51367;45.204;38.576;2023-05-29T20:27:08;18.63;84.97
64874;HTU21D;51367;45.204;38.576;2023-05-29T20:29:34;18.59;85.03
64874;HTU21D;51367;45.204;38.576;2023-05-29T20:32:01;18.58;85.06
64874;HTU21D;51367;45.204;38.576;2023-05-29T20:34:27;18.55;85.11
64874;HTU21D;51367;45.204;38.576;2023-05-29T20:36:53;18.53;85.16
64874;HTU21D;51367;45.204;38.576;2023-05-29T20:39:20;18.52;85.16
64874;HTU21D;51367;45.204;38.576;2023-05-29T20:41:47;18.49;85.17
64874;HTU21D;51367;45.204;38.576;2023-05-29T20:44:14;18.48;85.17
64874;HTU21D;51367;45.204;38.576;2023-05-29T20:46:40;18.43;85.13
64874;HTU21D;51367;45.204;38.576;2023-05-29T20:49:07;18.38;85.19
64874;HTU21D;51367;45.204;38.576;2023-05-29T20:51:34;18.29;85.28
64874;HTU21D;51367;45.204;38.576;2023-05-29T20:54:02;18.21;85.51
64874;HTU21D;51367;45.204;38.576;2023-05-29T20:56:29;18.19;85.65
64874;HTU21D;51367;45.204;38.576;2023-05-29T20:58:54;18.18;85.71
64874;HTU21D;51367;45.204;38.576;2023-05-29T21:01:21;18.18;85.71
64874;HTU21D;51367;45.204;38.576;2023-05-29T21:03:46;18.15;85.71
64874;HTU21D;51367;45.204;38.576;2023-05-29T21:06:13;18.15;85.74
64874;HTU21D;51367;45.204;38.576;2023-05-29T21:08:39;18.14;85.76
64874;HTU21D;51367;45.204;38.576;2023-05-29T21:11:05;18.13;85.77
64874;HTU21D;51367;45.204;38.576;2023-05-29T21:13:31;18.13;85.80
64874;HTU21D;51367;45.204;38.576;2023-05-29T21:15:58;18.13;85.80
64874;HTU21D;51367;45.204;38.576;2023-05-29T21:18:24;18.12;85.79
64874;HTU21D;51367;45.204;38.576;2023-05-29T21:20:50;18.10;85.80
64874;HTU21D;51367;45.204;38.576;2023-05-29T21:23:16;18.09;85.87
64874;HTU21D;51367;45.204;38.576;2023-05-29T21:25:43;18.07;85.85
64874;HTU21D;51367;45.204;38.576;2023-05-29T21:28:10;18.06;85.84
64874;HTU21D;51367;45.204;38.576;2023-05-29T21:30:36;18.03;85.89
64874;HTU21D;51367;45.204;38.576;2023-05-29T21:33:02;17.99;85.91
64874;HTU21D;51367;45.204;38.576;2023-05-29T21:35:31;17.99;85.94
64874;HTU21D;51367;45.204;38.576;2023-05-29T21:37:57;17.99;85.96
64874;HTU21D;51367;45.204;38.576;2023-05-29T21:40:23;18.00;85.96
64874;HTU21D;51367;45.204;38.576;2023-05-29T21:42:49;18.02;85.93
64874;HTU21D;51367;45.204;38.576;2023-05-29T21:45:16;18.00;85.92
64874;HTU21D;51367;45.204;38.576;2023-05-29T21:47:42;18.03;85.90
64874;HTU21D;51367;45.204;38.576;2023-05-29T21:50:08;18.02;85.88
64874;HTU21D;51367;45.204;38.576;2023-05-29T21:52:34;17.98;85.89
64874;HTU21D;51367;45.204;38.576;2023-05-29T21:55:01;17.95;86.00
64874;HTU21D;51367;45.204;38.576;2023-05-29T21:57:27;17.94;86.07
64874;HTU21D;51367;45.204;38.576;2023-05-29T21:59:52;17.94;86.12
64874;HTU21D;51367;45.204;38.576;2023-05-29T22:02:18;17.94;86.12
64874;HTU21D;51367;45.204;38.576;2023-05-29T22:04:44;17.91;86.16
64874;HTU21D;51367;45.204;38.576;2023-05-29T22:07:10;17.90;86.19
64874;HTU21D;51367;45.204;38.576;2023-05-29T22:09:36;17.90;86.19
64874;HTU21D;51367;45.204;38.576;2023-05-29T22:12:03;17.87;86.23
64874;HTU21D;51367;45.204;38.576;2023-05-29T22:14:28;17.81;86.31
64874;HTU21D;51367;45.204;38.576;2023-05-29T22:16:54;17.78;86.40
64874;HTU21D;51367;45.204;38.576;2023-05-29T22:19:21;17.75;86.50
64874;HTU21D;51367;45.204;38.576;2023-05-29T22:21:47;17.72;86.57
64874;HTU21D;51367;45.204;38.576;2023-05-29T22:24:13;17.67;86.61
64874;HTU21D;51367;45.204;38.576;2023-05-29T22:26:42;17.65;86.64
64874;HTU21D;51367;45.204;38.576;2023-05-29T22:29:08;17.62;86.68
64874;HTU21D;51367;45.204;38.576;2023-05-29T22:31:34;17.64;86.69
64874;HTU21D;51367;45.204;38.576;2023-05-29T22:34:01;17.62;86.69
64874;HTU21D;51367;45.204;38.576;2023-05-29T22:36:27;17.62;86.68
64874;HTU21D;51367;45.204;38.576;2023-05-29T22:38:53;17.60;86.64
64874;HTU21D;51367;45.204;38.576;2023-05-29T22:41:19;17.55;86.62
64874;HTU21D;51367;45.204;38.576;2023-05-29T22:43:46;17.55;86.68
64874;HTU21D;51367;45.204;38.576;2023-05-29T22:46:12;17.53;86.72
64874;HTU21D;51367;45.204;38.576;2023-05-29T22:48:38;17.52;86.70
64874;HTU21D;51367;45.204;38.576;2023-05-29T22:51:06;17.49;86.70
64874;HTU21D;51367;45.204;38.576;2023-05-29T22:53:33;17.43;86.71
64874;HTU21D;51367;45.204;38.576;2023-05-29T22:55:59;17.38;86.81
64874;HTU21D;51367;45.204;38.576;2023-05-29T22:58:25;17.34;86.90
64874;HTU21D;51367;45.204;38.576;2023-05-29T23:00:51;17.31;86.93
64874;HTU21D;51367;45.204;38.576;2023-05-29T23:03:17;17.26;86.97
64874;HTU21D;51367;45.204;38.576;2023-05-29T23:05:44;17.23;87.03
64874;HTU21D;51367;45.204;38.576;2023-05-29T23:08:12;17.19;87.11
64874;HTU21D;51367;45.204;38.576;2023-05-29T23:10:38;17.16;87.12
64874;HTU21D;51367;45.204;38.576;2023-05-29T23:13:04;17.11;87.19
64874;HTU21D;51367;45.204;38.576;2023-05-29T23:15:30;17.08;87.22
64874;HTU21D;51367;45.204;38.576;2023-05-29T23:17:57;17.06;87.34
64874;HTU21D;51367;45.204;38.576;2023-05-29T23:20:23;17.05;87.27
64874;HTU21D;51367;45.204;38.576;2023-05-29T23:22:49;17.06;87.25
64874;HTU21D;51367;45.204;38.576;2023-05-29T23:25:15;17.04;87.26
64874;HTU21D;51367;45.204;38.576;2023-05-29T23:27:41;17.04;87.19
64874;HTU21D;51367;45.204;38.576;2023-05-29T23:30:08;17.03;87.16
64874;HTU21D;51367;45.204;38.576;2023-05-29T23:32:35;17.01;87.14
64874;HTU21D;51367;45.204;38.576;2023-05-29T23:35:02;17.00;87.15
64874;HTU21D;51367;45.204;38.576;2023-05-29T23:37:29;16.98;87.19
64874;HTU21D;51367;45.204;38.576;2023-05-29T23:39:56;16.98;87.19
64874;HTU21D;51367;45.204;38.576;2023-05-29T23:42:22;16.98;87.20
64874;HTU21D;51367;45.204;38.576;2023-05-29T23:44:48;16.96;87.18
64874;HTU21D;51367;45.204;38.576;2023-05-29T23:47:15;16.95;87.16
64874;HTU21D;51367;45.204;38.576;2023-05-29T23:49:41;16.94;87.19
64874;HTU21D;51367;45.204;38.576;2023-05-29T23:52:07;16.93;87.15
64874;HTU21D;51367;45.204;38.576;2023-05-29T23:54:33;16.88;87.18
64874;HTU21D;51367;45.204;38.576;2023-05-29T23:56:59;16.84;87.28
64874;HTU21D;51367;45.204;38.576;2023-05-29T23:59:25;16.84;87.38
